Time;durP1;ratioP1;P1;durP2;ratioP2;P2;SDS_P1;SDS_P2;PMS_P1;PMS_P2;Temp;Humidity;BMP_temperature;BMP_pressure;BME280_temperature;BME280_humidity;BME280_pressure;Samples;Min_cycle;Max_cycle;Signal;HPM_P1;HPM_P2
2022/10/07 00:00:52;;;;;;;12.60;5.07;;;;;;;20.56;53.15;99368.06;4455886;32;20073;-84
2022/10/07 00:03:21;;;;;;;10.77;4.78;;;;;;;19.54;55.09;99356.72;4455344;32;20092;-85
2022/10/07 00:06:15;;;;;;;11.25;4.85;;;;;;;19.70;54.74;99369.78;4455782;32;20097;-84
2022/10/07 00:08:45;;;;;;;14.25;6.30;;;;;;;19.72;53.95;99360.91;4442615;32;20107;-84
2022/10/07 00:11:14;;;;;;;14.63;6.05;;;;;;;20.17;53.07;99356.44;4441570;32;20085;-85
2022/10/07 00:13:42;;;;;;;16.80;8.00;;;;;;;19.52;55.02;99358.59;4456046;32;20368;-84
2022/10/07 00:16:30;;;;;;;18.80;9.07;;;;;;;19.79;54.26;99364.00;4455879;32;20088;-84
2022/10/07 00:18:59;;;;;;;23.10;10.13;;;;;;;19.06;56.29;99361.25;4441923;32;20451;-84
2022/10/07 00:21:29;;;;;;;22.00;9.65;;;;;;;19.06;56.58;99361.25;4455984;32;20103;-85
2022/10/07 00:23:56;;;;;;;22.45;9.77;;;;;;;19.18;56.43;99360.53;4456031;32;20439;-84
2022/10/07 00:26:26;;;;;;;24.50;9.90;;;;;;;19.06;56.54;99358.63;4455659;32;20348;-84
2022/10/07 00:28:54;;;;;;;21.33;9.90;;;;;;;19.83;54.11;99360.25;4456024;32;20122;-84
2022/10/07 00:31:23;;;;;;;22.48;10.70;;;;;;;19.68;55.17;99361.19;4455814;32;20078;-84
2022/10/07 00:33:51;;;;;;;27.48;11.40;;;;;;;19.77;54.82;99355.38;4455583;32;20518;-84
2022/10/07 00:36:23;;;;;;;22.95;10.70;;;;;;;19.55;55.31;99358.41;4455824;32;20093;-84
2022/10/07 00:39:11;;;;;;;27.20;10.38;;;;;;;19.31;55.88;99358.06;4455677;32;20095;-84
2022/10/07 00:41:38;;;;;;;22.70;10.02;;;;;;;19.39;54.79;99353.22;4455786;32;20086;-85
2022/10/07 00:44:27;;;;;;;20.70;9.02;;;;;;;19.34;54.66;99357.88;4455859;32;20089;-84
2022/10/07 00:46:55;;;;;;;21.17;9.52;;;;;;;19.51;54.27;99351.66;4455643;32;20084;-84
2022/10/07 00:49:21;;;;;;;17.85;7.87;;;;;;;19.00;55.47;99346.72;4455826;32;20099;-84
2022/10/07 00:51:50;;;;;;;15.63;6.10;;;;;;;19.33;54.26;99346.56;4441782;32;20147;-84
2022/10/07 00:54:17;;;;;;;9.60;4.75;;;;;;;18.57;57.47;99344.78;4455235;32;20447;-84
2022/10/07 00:56:46;;;;;;;13.43;5.43;;;;;;;18.98;56.80;99338.13;4455696;32;20089;-84
2022/10/07 00:59:14;;;;;;;11.95;5.18;;;;;;;18.90;57.37;99344.72;4441833;32;20156;-84
2022/10/07 01:01:41;;;;;;;11.55;4.85;;;;;;;18.90;57.48;99329.03;4440682;32;20081;-84
2022/10/07 01:04:10;;;;;;;11.45;5.05;;;;;;;19.06;56.94;99328.06;4455562;32;20131;-84
2022/10/07 01:06:38;;;;;;;11.85;5.45;;;;;;;19.50;55.14;99327.25;4441407;32;20108;-84
2022/10/07 01:09:06;;;;;;;14.18;6.15;;;;;;;19.23;55.77;99324.47;4455682;32;20077;-84
2022/10/07 01:11:41;;;;;;;12.15;5.47;;;;;;;19.47;54.96;99321.38;4455202;32;20104;-84
2022/10/07 01:14:30;;;;;;;11.27;4.85;;;;;;;19.30;55.01;99320.56;4441017;32;20111;-84
2022/10/07 01:17:08;;;;;;;9.65;4.40;;;;;;;19.12;55.63;99326.03;4441482;32;20442;-84
2022/10/07 01:20:06;;;;;;;9.75;3.92;;;;;;;18.85;56.45;99324.06;4455556;32;20176;-84
2022/10/07 01:22:48;;;;;;;9.02;3.90;;;;;;;19.21;55.33;99318.50;4459937;26;20475;-85
2022/10/07 01:25:33;;;;;;;8.35;3.78;;;;;;;18.91;56.67;99322.84;4455250;32;20454;-84
2022/10/07 01:28:06;;;;;;;9.43;4.10;;;;;;;18.82;57.50;99318.13;4455073;32;20107;-84
2022/10/07 01:30:37;;;;;;;8.15;3.80;;;;;;;18.87;57.33;99319.59;4455385;32;20424;-84
2022/10/07 01:33:14;;;;;;;10.35;4.18;;;;;;;19.82;54.42;99314.91;4441455;32;20073;-84
2022/10/07 01:35:42;;;;;;;12.53;4.60;;;;;;;19.95;53.71;99320.22;4454727;32;20102;-84
2022/10/07 01:38:11;;;;;;;10.43;3.95;;;;;;;19.34;54.90;99324.69;4455253;32;20111;-85
2022/10/07 01:40:44;;;;;;;12.25;5.47;;;;;;;19.03;55.66;99315.19;4441208;32;20531;-84
2022/10/07 01:43:13;;;;;;;10.55;5.28;;;;;;;18.92;56.59;99308.84;4440786;32;20138;-84
2022/10/07 01:45:40;;;;;;;10.95;5.00;;;;;;;19.34;55.43;99311.59;4441049;32;20155;-84
2022/10/07 01:48:08;;;;;;;12.10;5.68;;;;;;;19.07;56.07;99310.59;4441195;32;20100;-84
2022/10/07 01:50:35;;;;;;;15.25;5.60;;;;;;;18.90;57.35;99308.94;4454657;32;20089;-84
2022/10/07 01:53:16;;;;;;;13.25;5.47;;;;;;;18.62;58.17;99304.41;4440959;32;20429;-84
2022/10/07 01:56:06;;;;;;;14.48;5.80;;;;;;;19.17;55.93;99306.53;4454598;32;20116;-84
2022/10/07 01:59:10;;;;;;;13.57;5.95;;;;;;;19.33;54.76;99302.06;4441694;32;20097;-84
2022/10/07 02:01:46;;;;;;;12.07;5.50;;;;;;;18.66;56.22;99292.03;4454501;32;20094;-84
2022/10/07 02:04:29;;;;;;;12.63;5.87;;;;;;;18.69;56.39;99295.31;4454526;32;20076;-84
2022/10/07 02:07:16;;;;;;;12.90;5.85;;;;;;;19.05;55.03;99295.00;4440961;32;20105;-84
2022/10/07 02:10:11;;;;;;;12.45;6.10;;;;;;;18.58;56.70;99283.72;4454868;32;20123;-84
2022/10/07 02:12:51;;;;;;;12.55;6.43;;;;;;;17.92;58.94;99285.56;4454568;32;20089;-84
2022/10/07 02:15:24;;;;;;;13.57;7.40;;;;;;;18.09;58.53;99294.28;4440503;32;20507;-84
2022/10/07 02:17:55;;;;;;;15.23;7.40;;;;;;;18.80;56.31;99289.47;4454373;32;20632;-84
2022/10/07 02:20:24;;;;;;;14.15;6.47;;;;;;;19.50;53.56;99295.00;4440825;32;20108;-84
2022/10/07 02:22:54;;;;;;;13.52;6.75;;;;;;;18.62;55.84;99286.09;4437645;32;20097;-84
2022/10/07 02:25:22;;;;;;;14.57;7.37;;;;;;;18.01;57.77;99283.38;4437513;32;20081;-84
2022/10/07 02:27:50;;;;;;;14.48;7.47;;;;;;;17.85;58.43;99292.00;4441447;32;20105;-84
2022/10/07 02:30:19;;;;;;;16.27;7.75;;;;;;;17.77;58.46;99285.53;4440068;32;20093;-84
2022/10/07 02:32:52;;;;;;;14.57;7.70;;;;;;;19.07;54.63;99297.53;4440655;32;20467;-84
2022/10/07 02:35:26;;;;;;;16.95;8.38;;;;;;;18.37;56.78;99291.81;4440006;32;20081;-84
2022/10/07 02:37:55;;;;;;;14.63;8.05;;;;;;;18.64;56.09;99280.78;4439891;32;20143;-84
2022/10/07 02:40:22;;;;;;;14.82;8.27;;;;;;;18.41;55.98;99285.53;4440155;32;20101;-84
2022/10/07 02:42:55;;;;;;;19.50;7.05;;;;;;;18.15;56.97;99286.94;4440084;32;20089;-84
2022/10/07 02:45:54;;;;;;;14.18;7.18;;;;;;;19.31;52.62;99288.25;4439630;32;20103;-84
2022/10/07 02:48:25;;;;;;;13.98;7.30;;;;;;;18.35;55.77;99288.47;4430814;32;20118;-84
2022/10/07 02:50:57;;;;;;;12.85;6.95;;;;;;;18.03;57.00;99292.81;4440165;32;20486;-84
2022/10/07 02:53:25;;;;;;;13.30;6.82;;;;;;;17.72;57.85;99290.13;4440992;32;20101;-84
2022/10/07 02:55:54;;;;;;;12.13;6.80;;;;;;;17.97;57.71;99289.69;4439773;32;20100;-84
2022/10/07 02:58:24;;;;;;;12.48;6.35;;;;;;;18.36;55.69;99284.91;4441242;32;20092;-84
2022/10/07 03:00:56;;;;;;;14.52;6.40;;;;;;;18.04;57.45;99283.22;4439743;32;20124;-84
2022/10/07 03:03:24;;;;;;;13.75;5.97;;;;;;;17.51;60.18;99287.69;4440104;32;20801;-84
2022/10/07 03:05:51;;;;;;;14.60;7.20;;;;;;;17.97;58.86;99284.44;4439823;32;20447;-84
2022/10/07 03:08:20;;;;;;;13.35;6.50;;;;;;;17.77;59.52;99282.91;4439893;32;20097;-84
2022/10/07 03:10:47;;;;;;;13.23;6.80;;;;;;;18.60;56.84;99276.63;4441103;32;20089;-84
2022/10/07 03:13:14;;;;;;;15.25;6.55;;;;;;;18.59;56.91;99272.34;4440681;32;20124;-84
2022/10/07 03:15:41;;;;;;;15.30;6.30;;;;;;;18.14;58.41;99273.94;4440861;32;20100;-84
2022/10/07 03:18:24;;;;;;;14.40;6.55;;;;;;;18.49;57.79;99277.25;4441157;32;20101;-84
2022/10/07 03:20:54;;;;;;;12.90;6.20;;;;;;;18.78;56.80;99276.50;4440899;32;20151;-84
2022/10/07 03:23:22;;;;;;;13.25;5.65;;;;;;;18.34;58.38;99278.94;4456043;32;20089;-84
2022/10/07 03:25:53;;;;;;;13.18;6.90;;;;;;;18.81;56.35;99275.47;4456269;32;20078;-84
2022/10/07 03:28:21;;;;;;;15.00;6.93;;;;;;;18.70;56.31;99275.22;4456212;32;20097;-84
2022/10/07 03:30:49;;;;;;;13.02;6.53;;;;;;;17.99;58.00;99267.81;4456444;32;20111;-84
2022/10/07 03:33:17;;;;;;;14.23;6.40;;;;;;;18.16;57.03;99261.66;4456190;32;20093;-84
2022/10/07 03:35:44;;;;;;;13.93;7.10;;;;;;;17.63;58.69;99271.38;4441965;32;20426;-84
2022/10/07 03:38:11;;;;;;;16.37;7.85;;;;;;;18.18;57.64;99268.50;4455303;32;20476;-84
2022/10/07 03:40:38;;;;;;;15.23;7.20;;;;;;;17.56;59.76;99274.41;4456437;32;20096;-84
2022/10/07 03:43:06;;;;;;;14.10;6.95;;;;;;;17.38;60.66;99278.78;4455969;32;20089;-84
2022/10/07 03:45:36;;;;;;;16.60;7.28;;;;;;;18.19;57.95;99272.78;4456155;32;20485;-84
2022/10/07 03:48:03;;;;;;;14.20;7.40;;;;;;;18.73;54.86;99264.63;4456108;32;20113;-84
2022/10/07 03:50:30;;;;;;;17.50;7.18;;;;;;;18.98;53.86;99272.75;4456357;32;20097;-84
2022/10/07 03:52:56;;;;;;;14.93;7.32;;;;;;;18.44;55.91;99274.91;4456220;32;20088;-84
2022/10/07 03:55:23;;;;;;;14.85;7.40;;;;;;;18.70;54.79;99264.78;4455783;32;20081;-84
2022/10/07 03:57:51;;;;;;;15.93;6.93;;;;;;;18.53;55.00;99263.09;4456267;32;20112;-84
2022/10/07 04:00:25;;;;;;;16.42;8.00;;;;;;;17.64;57.28;99277.44;4456360;32;20474;-84
2022/10/07 04:02:52;;;;;;;16.55;8.57;;;;;;;17.29;58.40;99274.03;4455443;32;20161;-84
2022/10/07 04:05:20;;;;;;;22.48;8.93;;;;;;;17.83;57.34;99272.13;4456041;32;20432;-84
2022/10/07 04:07:48;;;;;;;16.98;8.65;;;;;;;17.61;58.55;99272.38;4456205;32;20107;-84
2022/10/07 04:10:16;;;;;;;16.10;8.15;;;;;;;17.70;58.34;99261.50;4455898;32;20085;-84
2022/10/07 04:12:44;;;;;;;18.50;8.77;;;;;;;17.54;58.31;99261.41;4456086;32;20089;-84
2022/10/07 04:15:12;;;;;;;22.08;11.15;;;;;;;18.28;55.19;99265.34;4441985;32;20085;-84
2022/10/07 04:17:40;;;;;;;21.48;10.80;;;;;;;17.63;57.77;99258.31;4455844;32;20093;-84
2022/10/07 04:20:08;;;;;;;22.30;10.77;;;;;;;17.66;58.19;99262.56;4456050;32;20481;-84
2022/10/07 04:22:35;;;;;;;22.08;10.68;;;;;;;17.46;58.69;99257.53;4441798;32;20108;-84
2022/10/07 04:27:52;;;;;;;19.00;9.70;;;;;;;17.19;58.99;99263.22;4444437;32;20432;-84
2022/10/07 04:30:20;;;;;;;19.23;9.70;;;;;;;17.17;58.70;99265.06;4441855;32;20204;-84
2022/10/07 04:32:48;;;;;;;19.62;10.15;;;;;;;17.21;58.32;99269.19;4456020;32;20107;-80
2022/10/07 04:35:16;;;;;;;24.58;9.90;;;;;;;18.16;55.20;99264.25;4429262;32;20147;-80
2022/10/07 04:37:43;;;;;;;19.62;9.98;;;;;;;17.44;56.23;99261.97;4455762;32;20097;-80
2022/10/07 04:40:10;;;;;;;23.42;10.65;;;;;;;17.61;55.70;99265.41;4442089;32;20127;-79
2022/10/07 04:45:23;;;;;;;25.70;11.27;;;;;;;17.26;56.72;99269.00;4443655;32;20086;-79
2022/10/07 04:47:49;;;;;;;24.52;12.25;;;;;;;18.37;53.28;99257.03;4455959;32;20446;-79
2022/10/07 04:50:16;;;;;;;30.45;15.25;;;;;;;18.43;52.70;99257.53;4455292;32;20522;-79
2022/10/07 04:52:43;;;;;;;26.73;15.70;;;;;;;18.07;53.06;99260.38;4455554;32;20111;-79
2022/10/07 04:55:11;;;;;;;37.40;22.98;;;;;;;17.73;54.02;99265.72;4441597;32;20073;-79
2022/10/07 04:57:38;;;;;;;45.35;27.08;;;;;;;17.43;54.87;99262.88;4455774;32;20090;-81
2022/10/07 05:00:06;;;;;;;39.92;25.05;;;;;;;17.06;56.29;99268.22;4441424;32;20100;-80
2022/10/07 05:02:33;;;;;;;44.03;24.95;;;;;;;16.16;59.01;99258.62;4455533;32;20088;-80
2022/10/07 05:05:00;;;;;;;44.60;24.95;;;;;;;16.02;59.34;99263.63;4441563;32;20420;-80
2022/10/07 05:07:27;;;;;;;38.33;22.13;;;;;;;16.54;58.69;99264.66;4441569;32;20675;-79
2022/10/07 05:09:54;;;;;;;43.53;21.17;;;;;;;16.67;58.31;99267.53;4428946;32;20128;-81
2022/10/07 05:12:21;;;;;;;47.33;24.52;;;;;;;16.29;59.02;99269.34;4455180;32;20107;-81
2022/10/07 05:14:48;;;;;;;45.03;23.52;;;;;;;16.47;58.71;99260.66;4455279;32;20104;-80
2022/10/07 05:17:15;;;;;;;46.28;23.05;;;;;;;17.17;57.22;99262.47;4455554;32;20112;-79
2022/10/07 05:19:42;;;;;;;41.85;20.27;;;;;;;16.83;58.41;99270.28;4455172;32;20108;-79
2022/10/07 05:22:09;;;;;;;31.65;16.75;;;;;;;17.21;57.71;99263.13;4454899;32;20081;-79
2022/10/07 05:24:36;;;;;;;34.67;17.20;;;;;;;17.15;58.19;99272.13;4441233;32;20426;-79
2022/10/07 05:27:03;;;;;;;32.63;16.95;;;;;;;17.62;57.94;99274.06;4441226;32;20490;-79
2022/10/07 05:29:30;;;;;;;33.28;17.25;;;;;;;17.88;58.62;99272.75;4455389;32;20138;-79
2022/10/07 05:31:57;;;;;;;35.55;18.17;;;;;;;18.00;59.38;99266.88;4455185;32;20085;-79
2022/10/07 05:34:30;;;;;;;32.35;17.12;;;;;;;17.84;61.19;99266.84;4454945;32;20146;-79
2022/10/07 05:36:58;;;;;;;30.17;16.02;;;;;;;18.71;58.97;99263.84;4455130;32;20097;-79
2022/10/07 05:39:25;;;;;;;27.60;14.52;;;;;;;19.76;53.94;99259.44;4455211;32;20089;-79
2022/10/07 05:41:51;;;;;;;27.55;13.88;;;;;;;19.77;54.51;99261.94;4454801;32;20100;-79
2022/10/07 05:44:18;;;;;;;26.12;13.32;;;;;;;19.45;56.46;99265.62;4455017;32;20577;-79
2022/10/07 05:46:45;;;;;;;27.37;14.27;;;;;;;20.27;55.75;99265.00;4455048;32;20150;-80
2022/10/07 05:49:12;;;;;;;26.12;14.43;;;;;;;20.99;54.78;99274.34;4454710;32;20181;-80
2022/10/07 05:51:39;;;;;;;27.05;14.30;;;;;;;21.20;51.49;99265.03;4440921;32;20089;-80
2022/10/07 05:54:07;;;;;;;24.50;12.90;;;;;;;21.42;49.26;99269.72;4454931;32;20416;-80
2022/10/07 05:56:35;;;;;;;24.58;14.20;;;;;;;21.46;48.53;99273.81;4454534;32;20112;-80
2022/10/07 05:59:03;;;;;;;24.67;12.27;;;;;;;21.90;47.54;99270.75;4441235;32;20151;-80
2022/10/07 06:01:30;;;;;;;25.75;13.43;;;;;;;22.78;45.02;99268.84;4455531;32;20100;-80
2022/10/07 06:03:57;;;;;;;24.17;12.43;;;;;;;23.64;43.07;99275.59;4442967;32;20078;-79
2022/10/07 06:06:25;;;;;;;23.00;11.60;;;;;;;24.40;42.08;99274.88;4456854;32;20085;-79
2022/10/07 06:08:52;;;;;;;18.02;9.07;;;;;;;24.11;42.38;99276.31;4456499;32;20088;-79
2022/10/07 06:14:05;;;;;;;19.98;8.85;;;;;;;24.90;39.25;99291.06;4456853;32;20085;-79
2022/10/07 06:16:32;;;;;;;14.27;7.70;;;;;;;25.89;37.78;99300.37;4456426;32;20184;-78
2022/10/07 06:18:59;;;;;;;17.52;7.85;;;;;;;26.46;37.22;99294.47;4456882;32;20113;-80
2022/10/07 06:21:26;;;;;;;16.55;9.25;;;;;;;26.94;36.67;99296.34;4442902;32;20505;-80
2022/10/07 06:23:55;;;;;;;22.33;11.77;;;;;;;27.51;36.14;99294.66;4442565;32;20164;-79
2022/10/07 06:26:22;;;;;;;21.75;12.05;;;;;;;28.05;36.57;99289.63;4430167;32;20166;-79
2022/10/07 06:28:49;;;;;;;20.42;12.63;;;;;;;28.37;36.39;99300.66;4456785;32;20104;-79
2022/10/07 06:31:23;;;;;;;23.92;11.95;;;;;;;27.45;38.58;99303.19;4442180;32;20089;-79
2022/10/07 06:33:51;;;;;;;16.02;10.30;;;;;;;26.19;41.27;99310.09;4443552;32;20135;-79
2022/10/07 06:36:18;;;;;;;19.62;11.30;;;;;;;26.41;40.38;99306.44;4429916;32;20109;-79
2022/10/07 06:38:47;;;;;;;16.87;9.73;;;;;;;24.30;45.32;99302.91;4442454;32;20443;-79
2022/10/07 06:41:14;;;;;;;17.25;9.77;;;;;;;23.23;47.73;99297.16;4442834;32;20164;-79
2022/10/07 06:43:42;;;;;;;15.95;9.32;;;;;;;24.65;45.11;99299.28;4442460;32;20108;-79
2022/10/07 06:46:12;;;;;;;19.08;9.90;;;;;;;23.46;47.79;99292.78;4442564;32;20105;-79
2022/10/07 06:48:40;;;;;;;18.95;10.15;;;;;;;23.53;48.51;99296.62;4456822;32;20084;-79
2022/10/07 06:51:09;;;;;;;16.95;10.20;;;;;;;22.74;50.48;99292.84;4429569;32;20080;-79
2022/10/07 06:53:36;;;;;;;18.65;11.52;;;;;;;22.90;50.75;99289.97;4442650;32;20150;-79
2022/10/07 06:56:04;;;;;;;17.62;10.60;;;;;;;21.49;54.95;99289.38;4442430;32;20109;-79
2022/10/07 06:58:32;;;;;;;19.25;11.38;;;;;;;22.43;52.90;99294.22;4442399;32;20165;-79
2022/10/07 07:00:59;;;;;;;22.90;11.95;;;;;;;23.33;50.71;99298.13;4442638;32;20092;-79
2022/10/07 07:03:26;;;;;;;21.02;12.57;;;;;;;23.63;49.58;99295.84;4456551;32;20112;-79
2022/10/07 07:05:53;;;;;;;23.05;12.73;;;;;;;24.31;48.48;99295.88;4442123;32;20371;-79
2022/10/07 07:08:22;;;;;;;23.62;12.93;;;;;;;24.32;47.84;99294.91;4442724;32;20161;-79
2022/10/07 07:10:49;;;;;;;18.60;11.50;;;;;;;24.93;46.76;99301.34;4456554;32;20145;-79
2022/10/07 07:13:16;;;;;;;20.40;11.82;;;;;;;24.29;47.94;99298.59;4429087;32;20089;-79
2022/10/07 07:15:56;;;;;;;23.58;12.68;;;;;;;24.03;48.54;99299.78;4442473;32;20112;-79
2022/10/07 07:18:23;;;;;;;26.27;12.30;;;;;;;22.70;51.13;99305.38;4442560;32;20502;-79
2022/10/07 07:20:50;;;;;;;21.67;11.77;;;;;;;23.31;49.25;99298.25;4429508;32;20161;-79
2022/10/07 07:23:18;;;;;;;19.25;12.10;;;;;;;23.43;48.45;99299.13;4426709;32;20511;-79
2022/10/07 07:25:45;;;;;;;21.20;12.13;;;;;;;23.57;48.62;99303.31;4439382;32;20171;-79
2022/10/07 07:28:15;;;;;;;25.98;12.90;;;;;;;24.12;47.79;99310.47;4441103;32;20097;-78
2022/10/07 07:30:42;;;;;;;18.00;10.52;;;;;;;24.56;47.03;99305.28;4440946;32;20097;-79
2022/10/07 07:33:09;;;;;;;18.45;11.18;;;;;;;24.04;47.27;99304.97;4440507;32;20089;-79
2022/10/07 07:35:38;;;;;;;21.42;11.23;;;;;;;24.60;46.32;99307.56;4440696;32;20102;-79
2022/10/07 07:38:06;;;;;;;22.15;10.77;;;;;;;24.44;46.40;99300.03;4440961;32;20523;-80
2022/10/07 07:40:36;;;;;;;20.48;11.15;;;;;;;25.47;42.88;99299.56;4440442;32;20085;-80
2022/10/07 07:43:04;;;;;;;19.80;10.45;;;;;;;24.33;44.38;99300.06;4440784;32;20093;-80
2022/10/07 07:45:31;;;;;;;17.27;9.68;;;;;;;23.94;45.51;99301.38;4440721;32;20444;-81
2022/10/07 07:47:59;;;;;;;16.73;8.93;;;;;;;23.92;45.91;99300.63;4439231;32;20105;-80
2022/10/07 07:50:26;;;;;;;17.40;8.23;;;;;;;24.85;43.71;99297.66;4440821;32;20085;-80
2022/10/07 07:52:53;;;;;;;17.60;9.00;;;;;;;24.34;42.86;99299.09;4439629;32;20082;-79
2022/10/07 07:55:23;;;;;;;16.30;8.10;;;;;;;23.75;44.93;99299.31;4440047;32;20384;-79
2022/10/07 07:57:50;;;;;;;14.07;8.05;;;;;;;23.77;44.74;99294.78;4440851;32;20101;-78
2022/10/07 08:00:17;;;;;;;15.77;8.70;;;;;;;23.87;44.54;99292.25;4440722;32;20081;-78
2022/10/07 08:02:45;;;;;;;14.02;7.82;;;;;;;24.10;45.73;99295.72;4460313;26;20459;-78
2022/10/07 08:05:12;;;;;;;15.02;6.90;;;;;;;24.16;43.67;99293.47;4455849;32;20135;-80
2022/10/07 08:07:39;;;;;;;16.77;7.32;;;;;;;23.48;44.94;99283.78;4442027;32;20455;-83
2022/10/07 08:10:06;;;;;;;17.33;8.00;;;;;;;24.07;44.71;99293.34;4442082;32;20107;-81
2022/10/07 08:12:33;;;;;;;12.85;6.90;;;;;;;24.20;43.74;99286.13;4455907;32;20146;-81
2022/10/07 08:15:00;;;;;;;12.02;5.75;;;;;;;24.69;42.04;99283.09;4455767;32;20093;-80
2022/10/07 08:17:27;;;;;;;13.43;5.65;;;;;;;24.44;42.36;99291.28;4455928;32;20088;-80
2022/10/07 08:19:55;;;;;;;14.02;6.30;;;;;;;24.20;42.23;99288.78;4456053;32;20085;-81
2022/10/07 08:22:21;;;;;;;10.52;5.50;;;;;;;24.69;41.99;99283.09;4455596;32;20500;-80
2022/10/07 08:24:48;;;;;;;12.88;5.85;;;;;;;24.68;41.85;99276.13;4454818;32;20116;-81
2022/10/07 08:27:15;;;;;;;11.32;5.80;;;;;;;25.03;40.52;99280.34;4455830;32;20419;-80
2022/10/07 08:29:42;;;;;;;11.77;5.90;;;;;;;24.18;42.38;99282.78;4455561;32;20085;-79
2022/10/07 08:32:09;;;;;;;13.43;6.07;;;;;;;24.23;42.93;99286.72;4455911;32;20108;-79
2022/10/07 08:34:36;;;;;;;10.50;5.87;;;;;;;24.15;42.18;99285.69;4455860;32;20101;-79
2022/10/07 08:37:03;;;;;;;10.00;4.80;;;;;;;23.89;42.45;99285.91;4455479;32;20101;-79
2022/10/07 08:39:30;;;;;;;13.27;5.47;;;;;;;23.46;44.03;99277.81;4455914;32;20085;-79
2022/10/07 08:42:13;;;;;;;11.12;5.00;;;;;;;23.34;44.94;99281.38;4455849;32;20107;-79
2022/10/07 08:44:43;;;;;;;11.85;5.50;;;;;;;23.14;43.75;99284.66;4441750;32;20454;-79
2022/10/07 08:47:27;;;;;;;11.32;5.75;;;;;;;23.56;43.53;99275.31;4455992;32;20108;-79
2022/10/07 08:50:11;;;;;;;12.80;6.53;;;;;;;23.19;44.62;99278.13;4455559;32;20375;-79
2022/10/07 08:52:53;;;;;;;11.43;5.72;;;;;;;24.66;42.33;99275.38;4455713;32;20080;-79
2022/10/07 08:55:37;;;;;;;13.68;5.37;;;;;;;25.32;40.91;99272.62;4455632;32;20108;-79
2022/10/07 08:58:18;;;;;;;12.82;5.93;;;;;;;25.53;40.41;99278.75;4455444;32;20115;-79
2022/10/07 09:00:49;;;;;;;17.80;6.80;;;;;;;25.49;39.81;99273.84;4455779;32;20080;-78
2022/10/07 09:03:39;;;;;;;12.82;6.57;;;;;;;23.90;43.99;99265.66;4455485;32;20103;-79
2022/10/07 09:06:12;;;;;;;12.27;6.78;;;;;;;24.39;42.25;99262.66;4441251;32;20109;-79
2022/10/07 09:08:56;;;;;;;10.55;6.10;;;;;;;24.55;42.20;99261.41;4441955;32;20123;-79
2022/10/07 09:11:25;;;;;;;14.05;7.57;;;;;;;24.77;41.95;99262.16;4441110;32;20093;-79
2022/10/07 09:14:17;;;;;;;12.52;7.28;;;;;;;24.34;43.00;99251.63;4455431;32;20539;-79
2022/10/07 09:16:45;;;;;;;13.32;7.15;;;;;;;24.72;42.43;99247.69;4441463;32;20116;-79
2022/10/07 09:19:29;;;;;;;11.43;6.18;;;;;;;25.48;40.96;99249.22;4455018;32;20089;-79
2022/10/07 09:22:00;;;;;;;27.90;8.60;;;;;;;25.25;41.37;99245.87;4441463;32;20160;-79
2022/10/07 09:24:29;;;;;;;12.93;7.10;;;;;;;25.08;41.71;99249.94;4455206;32;20139;-79
2022/10/07 09:26:59;;;;;;;15.85;7.32;;;;;;;26.51;38.72;99251.72;4441116;32;20588;-79
2022/10/07 09:29:28;;;;;;;11.12;6.18;;;;;;;25.16;40.78;99245.81;4441401;32;20159;-79
2022/10/07 09:31:56;;;;;;;10.90;6.35;;;;;;;25.64;40.89;99243.47;4454929;32;20111;-79
2022/10/07 09:34:28;;;;;;;12.77;6.37;;;;;;;25.80;38.38;99235.06;4455011;32;20109;-79
2022/10/07 09:37:26;;;;;;;12.15;5.68;;;;;;;25.39;39.98;99240.25;4443151;32;20561;-79
2022/10/07 09:39:56;;;;;;;12.70;6.75;;;;;;;25.44;41.14;99237.25;4442267;32;20109;-79
2022/10/07 09:42:34;;;;;;;12.48;6.82;;;;;;;24.93;40.71;99243.25;4457433;32;20129;-86
2022/10/07 09:45:16;;;;;;;12.30;6.05;;;;;;;25.02;41.12;99241.69;4451614;32;20115;-85
2022/10/07 09:47:51;;;;;;;11.02;5.90;;;;;;;25.20;39.75;99234.03;4437391;32;20097;-85
2022/10/07 09:50:30;;;;;;;11.68;5.80;;;;;;;24.87;41.43;99237.66;4430830;32;20127;-86
2022/10/07 09:52:57;;;;;;;12.95;6.82;;;;;;;25.16;42.00;99222.06;4459186;32;20089;-85
2022/10/07 09:55:36;;;;;;;11.90;6.55;;;;;;;25.42;41.75;99219.84;4457587;32;20076;-85
2022/10/07 09:58:05;;;;;;;12.00;6.50;;;;;;;25.11;40.36;99217.16;4459959;32;20088;-85
2022/10/07 10:00:42;;;;;;;11.23;6.18;;;;;;;26.10;38.99;99211.22;4457818;32;20784;-85
2022/10/07 10:08:44;;;;;;;10.40;6.12;;;;;;;26.54;37.83;99211.75;4453984;32;20097;-84
2022/10/07 10:11:27;;;;;;;12.07;6.22;;;;;;;25.16;41.67;99209.69;4443018;32;20109;-85
2022/10/07 10:13:54;;;;;;;11.50;5.10;;;;;;;25.50;41.10;99212.94;4441368;32;20094;-84
2022/10/07 10:16:27;;;;;;;11.63;6.20;;;;;;;25.48;40.52;99211.38;4428211;32;20151;-85
2022/10/07 10:19:01;;;;;;;12.93;6.45;;;;;;;25.38;41.87;99206.88;4439994;32;20112;-84
2022/10/07 10:21:35;;;;;;;12.23;6.80;;;;;;;25.97;40.58;99199.25;4426340;32;20124;-83
2022/10/07 10:24:06;;;;;;;15.02;7.60;;;;;;;25.40;41.02;99198.81;4441446;32;20078;-84
2022/10/07 10:26:42;;;;;;;10.95;6.18;;;;;;;25.39;42.62;99198.00;4427638;32;20107;-84
2022/10/07 10:29:39;;;;;;;12.00;6.00;;;;;;;25.77;41.57;99185.97;4441474;32;20460;-83
2022/10/07 10:32:06;;;;;;;11.82;5.90;;;;;;;25.82;39.58;99180.25;4427397;32;20127;-85
2022/10/07 10:34:38;;;;;;;11.12;5.65;;;;;;;25.40;41.29;99185.63;4441234;32;20103;-85
2022/10/07 10:37:19;;;;;;;11.00;6.37;;;;;;;24.84;43.69;99190.41;4441293;32;20072;-87
2022/10/07 10:40:06;;;;;;;11.50;5.80;;;;;;;24.49;42.08;99176.53;4440393;32;20151;-89
2022/10/07 10:42:48;;;;;;;11.45;6.22;;;;;;;24.91;42.74;99173.91;4441374;32;20105;-87
2022/10/07 10:45:41;;;;;;;9.75;5.78;;;;;;;25.37;40.36;99157.66;4426982;32;20097;-87
2022/10/07 10:48:48;;;;;;;11.00;5.75;;;;;;;25.90;39.03;99157.47;4430285;32;20090;-88
2022/10/07 10:51:33;;;;;;;10.23;4.90;;;;;;;24.57;42.88;99161.88;4440836;32;20112;-88
2022/10/07 10:54:46;;;;;;;12.25;5.95;;;;;;;25.56;40.35;99151.62;4427878;32;20170;-87
2022/10/07 10:57:33;;;;;;;11.15;6.00;;;;;;;26.31;40.38;99154.75;4402913;32;20097;-89
2022/10/07 11:00:14;;;;;;;12.25;6.35;;;;;;;25.23;42.91;99138.69;4440799;32;20444;-88
2022/10/07 11:03:43;;;;;;;11.18;5.97;;;;;;;25.64;42.49;99130.66;4441220;32;20094;-88
2022/10/07 11:06:11;;;;;;;11.77;6.50;;;;;;;25.26;41.97;99130.50;4405147;32;20151;-88
2022/10/07 11:08:42;;;;;;;11.45;6.10;;;;;;;26.69;41.01;99133.59;4441089;32;20470;-87
2022/10/07 11:11:20;;;;;;;10.57;5.53;;;;;;;26.27;40.81;99117.16;4440417;32;20422;-87
2022/10/07 11:14:00;;;;;;;11.77;6.25;;;;;;;26.20;41.14;99118.69;4427871;32;20167;-87
2022/10/07 11:16:44;;;;;;;12.77;5.90;;;;;;;26.37;42.43;99111.88;4440441;32;20459;-85
2022/10/07 11:19:18;;;;;;;9.70;5.10;;;;;;;26.90;40.14;99116.69;4444036;32;20134;-86
2022/10/07 11:21:48;;;;;;;10.65;5.57;;;;;;;26.43;39.81;99108.69;4442642;32;20166;-87
2022/10/07 11:24:28;;;;;;;10.82;5.55;;;;;;;26.18;39.75;99108.25;4445165;32;20101;-87
2022/10/07 11:27:13;;;;;;;10.38;5.78;;;;;;;25.44;41.39;99102.50;4454452;32;20105;-86
2022/10/07 11:29:55;;;;;;;10.25;5.43;;;;;;;26.38;41.66;99098.53;4441143;32;20372;-88
2022/10/07 11:32:48;;;;;;;12.68;6.03;;;;;;;25.91;40.79;99093.03;4440686;32;20543;-88
2022/10/07 11:35:30;;;;;;;11.95;6.68;;;;;;;25.99;40.19;99092.34;4452544;32;20736;-88
2022/10/07 11:38:09;;;;;;;11.88;6.00;;;;;;;25.53;42.90;99083.19;4439898;32;20105;-88
2022/10/07 11:40:49;;;;;;;10.75;6.30;;;;;;;25.12;43.30;99080.69;4441207;32;20081;-90
2022/10/07 11:43:24;;;;;;;10.98;6.12;;;;;;;25.60;42.14;99083.47;4443341;32;20156;-89
2022/10/07 11:45:55;;;;;;;10.65;6.37;;;;;;;25.37;42.48;99074.94;4440217;32;20147;-88
2022/10/07 11:48:30;;;;;;;12.02;6.65;;;;;;;26.06;40.41;99068.84;4444663;32;20116;-87
2022/10/07 11:51:02;;;;;;;11.27;6.32;;;;;;;26.36;41.23;99073.97;4439927;32;20093;-86
2022/10/07 11:53:33;;;;;;;10.52;6.28;;;;;;;25.63;41.92;99070.00;4439389;32;20120;-86
2022/10/07 11:56:03;;;;;;;10.82;6.10;;;;;;;25.23;42.72;99062.09;4442694;32;20105;-83
2022/10/07 11:58:34;;;;;;;11.48;5.82;;;;;;;25.66;42.76;99060.00;4439045;32;20105;-83
2022/10/07 12:01:29;;;;;;;9.93;5.80;;;;;;;25.53;41.48;99048.84;4439602;32;20089;-82